createdAt,value
2023-01-19T00:00:45.451Z,-2.83
2023-01-19T00:03:16.144Z,-2.96
2023-01-19T00:05:43.959Z,-3.24
2023-01-19T00:08:17.497Z,-3.33
2023-01-19T00:10:46.356Z,-3.03
2023-01-19T00:13:13.563Z,-3.08
2023-01-19T00:15:40.116Z,-2.97
2023-01-19T00:18:07.600Z,-2.78
2023-01-19T00:20:38.053Z,-2.61
2023-01-19T00:23:04.843Z,-2.71
2023-01-19T00:25:31.691Z,-2.83
2023-01-19T00:28:00.510Z,-2.79
2023-01-19T00:30:28.047Z,-3.04
2023-01-19T00:32:54.552Z,-3.16
2023-01-19T00:35:21.124Z,-2.87
2023-01-19T00:37:47.662Z,-2.99
2023-01-19T00:40:14.315Z,-2.82
2023-01-19T00:42:44.189Z,-2.87
2023-01-19T00:45:13.583Z,-2.91
2023-01-19T00:47:40.299Z,-2.84
2023-01-19T00:50:11.861Z,-2.90
2023-01-19T00:52:39.867Z,-2.94
2023-01-19T00:55:09.174Z,-2.94
2023-01-19T00:57:35.800Z,-2.91
2023-01-19T01:00:06.435Z,-2.98
2023-01-19T01:02:34.164Z,-2.92
2023-01-19T01:05:02.800Z,-3.06
2023-01-19T01:07:30.405Z,-3.00
2023-01-19T01:09:57.455Z,-3.06
2023-01-19T01:12:24.612Z,-3.20
2023-01-19T01:14:51.187Z,-3.36
2023-01-19T01:17:25.103Z,-3.29
2023-01-19T01:19:52.481Z,-3.35
2023-01-19T01:22:19.611Z,-3.75
2023-01-19T01:24:46.226Z,-3.55
2023-01-19T01:27:13.297Z,-3.53
2023-01-19T01:29:41.238Z,-3.56
2023-01-19T01:32:08.479Z,-3.45
2023-01-19T01:34:35.330Z,-3.59
2023-01-19T01:37:02.890Z,-3.84
2023-01-19T01:39:29.567Z,-3.91
2023-01-19T01:41:56.091Z,-3.37
2023-01-19T01:44:52.088Z,-3.61
2023-01-19T01:47:39.684Z,-3.67
2023-01-19T01:50:17.192Z,-3.84
2023-01-19T01:53:06.503Z,-3.71
2023-01-19T01:55:38.053Z,-3.77
2023-01-19T01:58:08.729Z,-3.54
2023-01-19T02:00:54.304Z,-3.64
2023-01-19T02:03:23.428Z,-3.81
2023-01-19T02:05:50.848Z,-3.66
2023-01-19T02:08:46.927Z,-3.92
2023-01-19T02:11:32.344Z,-3.79
2023-01-19T02:13:59.009Z,-3.98
2023-01-19T02:16:25.581Z,-4.12
2023-01-19T02:18:52.452Z,-4.39
2023-01-19T02:21:57.039Z,-3.85
2023-01-19T02:24:24.401Z,-3.76
2023-01-19T02:26:51.998Z,-3.50
2023-01-19T02:29:20.947Z,-3.77
2023-01-19T02:31:47.776Z,-3.94
2023-01-19T02:34:19.944Z,-3.89
2023-01-19T02:36:56.160Z,-4.09
2023-01-19T02:39:26.847Z,-4.02
2023-01-19T02:41:59.740Z,-4.03
2023-01-19T02:44:27.791Z,-3.98
2023-01-19T02:46:54.833Z,-3.62
2023-01-19T02:49:21.391Z,-3.62
2023-01-19T02:51:48.482Z,-3.63
2023-01-19T02:54:27.164Z,-3.90
2023-01-19T02:56:56.657Z,-3.79
2023-01-19T02:59:26.288Z,-3.72
2023-01-19T03:02:17.722Z,-3.78
2023-01-19T03:05:22.965Z,-3.71
2023-01-19T03:08:08.011Z,-3.77
2023-01-19T03:10:53.173Z,-3.68
2023-01-19T03:13:47.298Z,-3.71
2023-01-19T03:16:25.580Z,-3.69
2023-01-19T03:19:03.009Z,-3.73
2023-01-19T03:21:33.966Z,-3.90
2023-01-19T03:24:04.657Z,-3.82
2023-01-19T03:26:34.938Z,-3.87
2023-01-19T03:29:04.039Z,-4.16
2023-01-19T03:31:33.062Z,-4.10
2023-01-19T03:34:07.860Z,-3.99
2023-01-19T03:36:40.482Z,-4.06
2023-01-19T03:39:09.594Z,-4.21
2023-01-19T03:41:38.358Z,-4.09
2023-01-19T03:44:06.239Z,-4.13
2023-01-19T03:46:33.911Z,-4.12
2023-01-19T03:49:00.576Z,-4.10
2023-01-19T03:51:27.401Z,-4.33
2023-01-19T03:53:53.927Z,-4.37
2023-01-19T03:56:25.257Z,-4.05
2023-01-19T03:58:52.440Z,-4.03
2023-01-19T04:01:23.406Z,-3.90
2023-01-19T04:03:50.811Z,-3.68
2023-01-19T04:06:18.025Z,-3.62
2023-01-19T04:08:44.606Z,-3.80
2023-01-19T04:11:11.594Z,-3.73
2023-01-19T04:13:38.133Z,-3.79
2023-01-19T04:16:05.568Z,-3.93
2023-01-19T04:18:34.932Z,-4.09
2023-01-19T04:21:06.650Z,-4.24
2023-01-19T04:23:33.801Z,-4.25
2023-01-19T04:26:03.174Z,-4.26
2023-01-19T04:28:30.648Z,-4.29
2023-01-19T04:30:57.231Z,-4.26
2023-01-19T04:33:24.512Z,-4.47
2023-01-19T04:35:54.419Z,-4.50
2023-01-19T04:38:21.947Z,-4.72
2023-01-19T04:40:53.429Z,-4.89
2023-01-19T04:43:21.206Z,-4.58
2023-01-19T04:45:49.078Z,-4.43
2023-01-19T04:48:18.370Z,-4.67
2023-01-19T04:50:44.931Z,-4.51
2023-01-19T04:53:13.637Z,-4.60
2023-01-19T04:55:40.503Z,-4.62
2023-01-19T04:58:07.091Z,-4.71
2023-01-19T05:00:33.831Z,-4.76
2023-01-19T05:03:01.638Z,-4.73
2023-01-19T05:05:28.661Z,-4.50
2023-01-19T05:07:55.353Z,-4.48
2023-01-19T05:10:22.149Z,-4.37
2023-01-19T05:12:48.834Z,-4.28
2023-01-19T05:15:15.401Z,-4.24
2023-01-19T05:17:42.087Z,-4.19
2023-01-19T05:20:11.105Z,-4.15
2023-01-19T05:22:39.190Z,-4.18
2023-01-19T05:25:08.781Z,-4.08
2023-01-19T05:27:36.445Z,-4.10
2023-01-19T05:30:05.022Z,-4.00
2023-01-19T05:32:31.612Z,-3.99
2023-01-19T05:34:58.177Z,-3.92
2023-01-19T05:37:24.769Z,-3.82
2023-01-19T05:39:51.466Z,-3.95
2023-01-19T05:42:18.007Z,-3.92
2023-01-19T05:44:44.608Z,-3.99
2023-01-19T05:47:11.788Z,-4.12
2023-01-19T05:49:38.428Z,-4.30
2023-01-19T05:52:04.957Z,-4.50
2023-01-19T05:54:31.545Z,-4.47
2023-01-19T05:56:58.245Z,-4.36
2023-01-19T05:59:24.806Z,-4.25
2023-01-19T06:01:52.160Z,-4.20
2023-01-19T06:04:19.965Z,-3.96
2023-01-19T06:06:50.329Z,-3.93
2023-01-19T06:09:17.573Z,-4.04
2023-01-19T06:11:45.245Z,-4.19
2023-01-19T06:14:12.012Z,-4.45
2023-01-19T06:16:38.953Z,-4.57
2023-01-19T06:19:05.937Z,-4.66
2023-01-19T06:21:33.221Z,-4.73
2023-01-19T06:23:59.897Z,-4.94
2023-01-19T06:26:26.436Z,-4.92
2023-01-19T06:28:52.988Z,-5.20
2023-01-19T06:31:19.576Z,-5.22
2023-01-19T06:33:46.164Z,-5.22
2023-01-19T06:36:12.845Z,-5.07
2023-01-19T06:38:39.391Z,-4.94
2023-01-19T06:41:05.979Z,-4.94
2023-01-19T06:43:32.755Z,-5.04
2023-01-19T06:46:00.679Z,-5.15
2023-01-19T06:48:27.653Z,-5.21
2023-01-19T06:50:54.216Z,-5.27
2023-01-19T06:53:22.273Z,-5.24
2023-01-19T06:55:48.974Z,-5.08
2023-01-19T06:58:15.771Z,-4.93
2023-01-19T07:00:43.081Z,-4.93
2023-01-19T07:03:16.106Z,-4.86
2023-01-19T07:05:42.731Z,-4.88
2023-01-19T07:08:09.315Z,-4.91
2023-01-19T07:11:21.524Z,-4.93
2023-01-19T07:13:22.830Z,-4.81
2023-01-19T07:15:49.434Z,-4.76
2023-01-19T07:18:15.956Z,-4.83
2023-01-19T07:20:44.344Z,-4.98
2023-01-19T07:23:10.865Z,-4.77
2023-01-19T07:25:38.284Z,-4.90
2023-01-19T07:28:04.883Z,-4.88
2023-01-19T07:30:31.437Z,-4.94
2023-01-19T07:32:59.076Z,-5.11
2023-01-19T07:35:25.914Z,-5.16
2023-01-19T07:37:52.580Z,-5.16
2023-01-19T07:40:19.304Z,-5.23
2023-01-19T07:42:48.771Z,-5.25
2023-01-19T07:45:23.234Z,-5.26
2023-01-19T07:47:50.051Z,-5.15
2023-01-19T07:50:21.230Z,-4.89
2023-01-19T07:52:50.640Z,-4.80
2023-01-19T07:55:17.575Z,-4.93
2023-01-19T07:57:44.262Z,-4.83
2023-01-19T08:00:11.599Z,-4.87
2023-01-19T08:02:38.350Z,-4.93
2023-01-19T08:05:05.210Z,-4.78
2023-01-19T08:07:33.480Z,-4.76
2023-01-19T08:10:00.004Z,-4.57
2023-01-19T08:12:26.587Z,-4.37
2023-01-19T08:14:53.127Z,-4.35
2023-01-19T08:17:19.709Z,-4.18
2023-01-19T08:19:46.242Z,-4.20
2023-01-19T08:22:12.742Z,-4.15
2023-01-19T08:24:39.254Z,-4.15
2023-01-19T08:27:06.120Z,-4.18
2023-01-19T08:29:33.669Z,-4.12
2023-01-19T08:32:02.232Z,-4.09
2023-01-19T08:34:32.686Z,-3.97
2023-01-19T08:36:59.496Z,-3.86
2023-01-19T08:39:27.363Z,-3.67
2023-01-19T08:41:54.248Z,-3.63
2023-01-19T08:44:20.871Z,-3.58
2023-01-19T08:46:47.883Z,-3.44
2023-01-19T08:49:15.807Z,-3.59
2023-01-19T08:51:42.365Z,-3.49
2023-01-19T08:54:09.867Z,-3.59
2023-01-19T08:56:36.816Z,-3.57
2023-01-19T08:59:09.906Z,-3.53
2023-01-19T09:01:37.651Z,-3.29
2023-01-19T09:04:04.480Z,-3.21
2023-01-19T09:06:31.031Z,-3.18
2023-01-19T09:08:57.764Z,-3.06
2023-01-19T09:11:24.489Z,-2.99
2023-01-19T09:13:51.032Z,-2.85
2023-01-19T09:16:17.694Z,-2.75
2023-01-19T09:18:46.045Z,-2.74
2023-01-19T09:21:13.879Z,-2.80
2023-01-19T09:23:40.547Z,-2.57
2023-01-19T09:26:07.406Z,-2.79
2023-01-19T09:28:34.078Z,-2.81
2023-01-19T09:31:05.519Z,-2.70
2023-01-19T09:33:32.132Z,-2.60
2023-01-19T09:35:58.978Z,-2.67
2023-01-19T09:38:27.008Z,-2.50
2023-01-19T09:40:56.676Z,-2.44
2023-01-19T09:43:39.421Z,-2.32
2023-01-19T09:46:21.119Z,-2.03
2023-01-19T09:48:51.809Z,-1.68
2023-01-19T09:51:28.168Z,-1.38
2023-01-19T09:54:17.860Z,-1.30
2023-01-19T09:56:46.208Z,-1.28
2023-01-19T09:59:21.943Z,-1.20
2023-01-19T10:02:18.846Z,-1.13
2023-01-19T10:05:02.565Z,-1.04
2023-01-19T10:07:54.542Z,-1.08
2023-01-19T10:10:30.854Z,-1.10
2023-01-19T10:13:09.748Z,-1.35
2023-01-19T10:15:36.390Z,-1.34
2023-01-19T10:18:20.030Z,-1.28
2023-01-19T10:20:56.452Z,-1.21
2023-01-19T10:23:38.540Z,-1.33
2023-01-19T10:26:26.357Z,-1.12
2023-01-19T10:28:57.564Z,-0.85
2023-01-19T10:31:25.106Z,-0.76
2023-01-19T10:33:52.775Z,-0.70
2023-01-19T10:36:29.774Z,-0.56
2023-01-19T10:38:56.328Z,-0.48
2023-01-19T10:41:31.707Z,-0.37
2023-01-19T10:44:04.336Z,-0.41
2023-01-19T10:46:42.145Z,-0.40
2023-01-19T10:49:28.992Z,-0.40
2023-01-19T10:51:58.166Z,-0.26
2023-01-19T10:54:27.486Z,-0.32
2023-01-19T10:57:21.581Z,-0.15
2023-01-19T10:59:50.869Z,-0.11
2023-01-19T11:02:29.456Z,0.04
2023-01-19T11:05:23.126Z,0.03
2023-01-19T11:07:49.682Z,0.10
2023-01-19T11:10:16.324Z,0.05
2023-01-19T11:12:45.864Z,0.06
2023-01-19T11:15:22.907Z,0.10
2023-01-19T11:17:50.486Z,0.14
2023-01-19T11:20:30.493Z,0.32
2023-01-19T11:23:18.457Z,0.38
2023-01-19T11:25:50.249Z,0.40
2023-01-19T11:28:40.003Z,0.45
2023-01-19T11:31:15.873Z,0.49
2023-01-19T11:33:49.778Z,0.49
2023-01-19T11:36:24.586Z,0.45
2023-01-19T11:38:53.796Z,0.39
2023-01-19T11:41:33.125Z,0.32
2023-01-19T11:44:21.588Z,0.51
2023-01-19T11:46:51.996Z,0.50
2023-01-19T11:49:40.458Z,0.71
2023-01-19T11:52:16.275Z,0.76
2023-01-19T11:54:51.852Z,0.67
2023-01-19T11:57:18.449Z,0.66
2023-01-19T11:59:45.071Z,0.55
2023-01-19T12:02:53.019Z,0.58
2023-01-19T12:05:21.561Z,0.72
2023-01-19T12:07:50.959Z,0.82
2023-01-19T12:10:31.550Z,0.88
2023-01-19T12:12:59.212Z,0.90
2023-01-19T12:16:08.712Z,1.01
2023-01-19T12:18:50.126Z,1.10
2023-01-19T12:21:19.270Z,1.10
2023-01-19T12:24:07.641Z,1.22
2023-01-19T12:26:40.873Z,1.41
2023-01-19T12:29:17.779Z,1.43
2023-01-19T12:31:44.542Z,1.41
2023-01-19T12:34:27.241Z,1.52
2023-01-19T12:36:58.060Z,1.50
2023-01-19T12:39:25.946Z,1.68
2023-01-19T12:42:18.125Z,1.77
2023-01-19T12:44:47.188Z,1.74
2023-01-19T12:47:13.655Z,1.74
2023-01-19T12:49:46.431Z,1.72
2023-01-19T12:52:26.841Z,1.63
2023-01-19T12:55:05.455Z,1.55
2023-01-19T12:57:48.108Z,1.55
2023-01-19T13:00:23.573Z,1.69
2023-01-19T13:02:55.717Z,1.72
2023-01-19T13:05:24.493Z,1.71
2023-01-19T13:08:03.354Z,1.71
2023-01-19T13:11:09.612Z,1.78
2023-01-19T13:13:46.279Z,1.76
2023-01-19T13:16:20.639Z,1.81
2023-01-19T13:18:58.593Z,1.83
2023-01-19T13:21:33.301Z,1.86
2023-01-19T13:24:05.820Z,1.89
2023-01-19T13:26:35.247Z,1.88
2023-01-19T13:29:16.470Z,1.91
2023-01-19T13:31:49.052Z,1.92
2023-01-19T13:34:19.832Z,1.94
2023-01-19T13:36:51.295Z,1.87
2023-01-19T13:39:28.428Z,1.90
2023-01-19T13:41:58.229Z,1.93
2023-01-19T13:44:29.827Z,1.89
2023-01-19T13:46:59.357Z,2.06
2023-01-19T13:49:44.823Z,2.12
2023-01-19T13:52:16.994Z,2.37
2023-01-19T13:54:53.337Z,2.39
2023-01-19T13:57:31.623Z,2.30
2023-01-19T14:00:21.623Z,2.21
2023-01-19T14:02:59.272Z,2.08
2023-01-19T14:05:38.045Z,2.06
2023-01-19T14:08:11.415Z,2.04
2023-01-19T14:10:40.909Z,2.04
2023-01-19T14:13:16.979Z,2.01
2023-01-19T14:15:45.200Z,1.95
2023-01-19T14:18:17.989Z,1.99
2023-01-19T14:21:11.831Z,2.03
2023-01-19T14:23:43.416Z,2.01
2023-01-19T14:26:46.913Z,1.99
2023-01-19T14:29:18.017Z,2.00
2023-01-19T14:31:47.057Z,1.93
2023-01-19T14:34:35.178Z,1.81
2023-01-19T14:37:04.172Z,1.55
2023-01-19T14:39:34.651Z,1.58
2023-01-19T14:42:04.054Z,1.47
2023-01-19T14:44:40.488Z,1.25
2023-01-19T14:47:38.919Z,1.21
2023-01-19T14:50:17.808Z,1.18
2023-01-19T14:53:00.132Z,0.87
2023-01-19T14:55:43.571Z,0.71
2023-01-19T14:58:12.348Z,0.81
2023-01-19T15:00:40.001Z,0.86
2023-01-19T15:03:06.942Z,0.87
2023-01-19T15:05:33.789Z,0.87
2023-01-19T15:08:02.945Z,0.86
2023-01-19T15:10:45.310Z,0.73
2023-01-19T15:13:20.531Z,0.64
2023-01-19T15:15:47.198Z,0.51
2023-01-19T15:18:21.016Z,0.14
2023-01-19T15:20:47.598Z,0.19
2023-01-19T15:23:14.140Z,0.01
2023-01-19T15:25:40.836Z,0.07
2023-01-19T15:28:16.804Z,0.05
2023-01-19T15:30:43.842Z,0.02
2023-01-19T15:33:21.475Z,0.06
2023-01-19T15:35:48.377Z,-0.03
2023-01-19T15:38:15.229Z,-0.27
2023-01-19T15:40:41.799Z,-0.17
2023-01-19T15:43:11.443Z,-0.29
2023-01-19T15:45:41.744Z,-0.38
2023-01-19T15:48:11.194Z,-0.18
2023-01-19T15:50:40.477Z,-0.26
2023-01-19T15:53:11.963Z,-0.30
2023-01-19T15:55:38.522Z,-0.43
2023-01-19T15:58:05.330Z,-0.39
2023-01-19T16:00:33.652Z,-0.29
2023-01-19T16:03:02.045Z,-0.25
2023-01-19T16:05:41.981Z,-0.32
2023-01-19T16:08:10.379Z,-0.57
2023-01-19T16:10:38.979Z,-0.56
2023-01-19T16:13:09.368Z,-0.53
2023-01-19T16:15:37.338Z,-0.70
2023-01-19T16:18:05.362Z,-0.69
2023-01-19T16:20:32.230Z,-0.78
2023-01-19T16:23:13.835Z,-0.84
2023-01-19T16:25:41.488Z,-0.84
2023-01-19T16:28:08.451Z,-0.82
2023-01-19T16:30:35.367Z,-0.53
2023-01-19T16:33:02.088Z,-0.76
2023-01-19T16:35:28.668Z,-0.64
2023-01-19T16:37:55.267Z,-0.68
2023-01-19T16:40:21.961Z,-0.77
2023-01-19T16:42:48.647Z,-0.78
2023-01-19T16:45:15.261Z,-1.03
2023-01-19T16:47:41.962Z,-0.97
2023-01-19T16:50:11.705Z,-0.97
2023-01-19T16:52:38.678Z,-0.92
2023-01-19T16:55:09.344Z,-1.01
2023-01-19T16:57:38.809Z,-0.92
2023-01-19T17:00:09.348Z,-1.15
2023-01-19T17:02:36.349Z,-0.98
2023-01-19T17:05:02.957Z,-1.02
2023-01-19T17:07:29.517Z,-1.20
2023-01-19T17:09:56.214Z,-0.87
2023-01-19T17:12:23.130Z,-0.89
2023-01-19T17:14:49.723Z,-0.94
2023-01-19T17:17:16.323Z,-1.16
2023-01-19T17:19:45.040Z,-1.31
2023-01-19T17:22:12.905Z,-1.46
2023-01-19T17:24:42.346Z,-1.32
2023-01-19T17:27:10.194Z,-1.28
2023-01-19T17:29:36.951Z,-1.27
2023-01-19T17:32:04.006Z,-0.98
2023-01-19T17:34:30.566Z,-1.12
2023-01-19T17:37:02.962Z,-0.92
2023-01-19T17:39:29.990Z,-0.93
2023-01-19T17:41:56.622Z,-0.88
2023-01-19T17:44:23.466Z,-0.98
2023-01-19T17:46:50.066Z,-1.02
2023-01-19T17:49:16.632Z,-0.97
2023-01-19T17:51:43.229Z,-0.84
2023-01-19T17:54:10.890Z,-0.96
2023-01-19T17:56:38.611Z,-0.99
2023-01-19T17:59:07.662Z,-0.97
2023-01-19T18:01:38.149Z,-0.73
2023-01-19T18:04:05.316Z,-0.83
2023-01-19T18:06:31.908Z,-0.77
2023-01-19T18:08:59.343Z,-0.80
2023-01-19T18:11:27.070Z,-0.65
2023-01-19T18:13:53.760Z,-0.71
2023-01-19T18:16:25.886Z,-0.70
2023-01-19T18:18:53.924Z,-0.64
2023-01-19T18:21:21.882Z,-0.63
2023-01-19T18:23:50.183Z,-0.72
2023-01-19T18:26:19.268Z,-0.67
2023-01-19T18:28:46.618Z,-0.64
2023-01-19T18:31:15.644Z,-0.66
2023-01-19T18:33:42.551Z,-0.51
2023-01-19T18:36:10.124Z,-0.51
2023-01-19T18:38:37.963Z,-0.38
2023-01-19T18:41:11.250Z,-0.34
2023-01-19T18:43:38.434Z,-0.33
2023-01-19T18:46:05.708Z,-0.23
2023-01-19T18:48:32.548Z,-0.21
2023-01-19T18:51:03.323Z,-0.22
2023-01-19T18:53:31.502Z,-0.19
2023-01-19T18:56:01.847Z,-0.13
2023-01-19T18:58:29.946Z,-0.17
2023-01-19T19:00:57.156Z,-0.31
2023-01-19T19:03:24.162Z,-0.49
2023-01-19T19:05:50.801Z,-0.39
2023-01-19T19:08:17.481Z,-0.34
2023-01-19T19:10:44.475Z,-0.31
2023-01-19T19:13:15.869Z,-0.32
2023-01-19T19:15:44.341Z,-0.37
2023-01-19T19:18:14.079Z,-0.39
2023-01-19T19:20:44.348Z,-0.45
2023-01-19T19:23:11.760Z,-0.24
2023-01-19T19:25:38.554Z,-0.25
2023-01-19T19:28:05.252Z,-0.15
2023-01-19T19:30:34.313Z,-0.13
2023-01-19T19:33:01.110Z,-0.11
2023-01-19T19:35:27.804Z,-0.11
2023-01-19T19:37:57.543Z,-0.06
2023-01-19T19:40:28.489Z,-0.16
2023-01-19T19:42:57.662Z,-0.16
2023-01-19T19:45:25.253Z,-0.11
2023-01-19T19:47:51.771Z,0.10
2023-01-19T19:50:18.478Z,0.04
2023-01-19T19:52:45.047Z,0.02
2023-01-19T19:55:12.710Z,0.08
2023-01-19T19:57:39.386Z,0.10
2023-01-19T20:00:06.697Z,0.08
2023-01-19T20:02:33.387Z,0.30
2023-01-19T20:04:59.985Z,0.10
2023-01-19T20:07:26.690Z,0.21
2023-01-19T20:09:55.056Z,0.12
2023-01-19T20:12:21.908Z,0.29
2023-01-19T20:14:48.467Z,0.13
2023-01-19T20:17:15.110Z,0.15
2023-01-19T20:19:41.724Z,0.25
2023-01-19T20:22:08.260Z,0.02
2023-01-19T20:24:37.156Z,-0.01
2023-01-19T20:27:03.857Z,-0.10
2023-01-19T20:29:30.680Z,-0.02
2023-01-19T20:31:57.645Z,-0.06
2023-01-19T20:34:28.161Z,0.07
2023-01-19T20:36:55.102Z,-0.07
2023-01-19T20:39:23.290Z,-0.15
2023-01-19T20:41:51.432Z,0.05
2023-01-19T20:44:24.225Z,-0.01
2023-01-19T20:46:51.542Z,0.19
2023-01-19T20:49:18.447Z,0.08
2023-01-19T20:51:46.924Z,0.01
2023-01-19T20:54:16.265Z,-0.05
2023-01-19T20:56:43.240Z,-0.08
2023-01-19T20:59:11.544Z,-0.14
2023-01-19T21:01:39.391Z,0.06
2023-01-19T21:04:06.182Z,0.16
2023-01-19T21:06:32.880Z,0.35
2023-01-19T21:08:59.560Z,0.65
2023-01-19T21:11:26.461Z,0.71
2023-01-19T21:13:56.038Z,0.80
2023-01-19T21:16:24.948Z,0.92
2023-01-19T21:18:51.624Z,0.94
2023-01-19T21:21:29.883Z,0.98
2023-01-19T21:23:58.931Z,0.85
2023-01-19T21:26:25.731Z,1.07
2023-01-19T21:28:52.425Z,1.03
2023-01-19T21:31:20.897Z,1.01
2023-01-19T21:33:49.149Z,1.08
2023-01-19T21:36:15.750Z,1.11
2023-01-19T21:38:42.392Z,1.16
2023-01-19T21:41:12.580Z,1.19
2023-01-19T21:43:41.846Z,1.18
2023-01-19T21:46:16.849Z,1.12
2023-01-19T21:48:43.532Z,1.17
2023-01-19T21:51:10.331Z,1.17
2023-01-19T21:53:37.384Z,1.04
2023-01-19T21:56:07.594Z,1.16
2023-01-19T21:58:34.256Z,1.22
2023-01-19T22:01:02.546Z,1.21
2023-01-19T22:03:29.745Z,1.18
2023-01-19T22:05:56.684Z,1.24
2023-01-19T22:08:24.086Z,1.09
2023-01-19T22:10:50.663Z,1.26
2023-01-19T22:13:17.244Z,1.22
2023-01-19T22:15:43.878Z,1.14
2023-01-19T22:18:10.444Z,1.20
2023-01-19T22:20:37.329Z,1.16
2023-01-19T22:23:03.947Z,1.18
2023-01-19T22:25:32.709Z,1.30
2023-01-19T22:27:59.400Z,1.20
2023-01-19T22:30:26.141Z,1.03
2023-01-19T22:32:53.303Z,1.16
2023-01-19T22:35:21.213Z,1.26
2023-01-19T22:37:47.782Z,1.29
2023-01-19T22:40:14.342Z,1.31
2023-01-19T22:42:44.371Z,1.16
2023-01-19T22:45:11.487Z,1.33
2023-01-19T22:47:38.247Z,1.20
2023-01-19T22:50:05.203Z,1.01
2023-01-19T22:52:31.724Z,1.13
2023-01-19T22:54:58.366Z,0.80
2023-01-19T22:57:24.976Z,0.63
2023-01-19T22:59:51.549Z,0.46
2023-01-19T23:02:20.629Z,0.44
2023-01-19T23:04:47.386Z,0.56
2023-01-19T23:07:13.933Z,0.59
2023-01-19T23:09:40.487Z,1.02
2023-01-19T23:12:07.052Z,1.14
2023-01-19T23:14:33.687Z,0.97
2023-01-19T23:17:00.266Z,0.96
2023-01-19T23:19:26.866Z,1.02
2023-01-19T23:21:53.510Z,1.04
2023-01-19T23:24:20.211Z,1.08
2023-01-19T23:26:49.255Z,1.17
2023-01-19T23:29:15.924Z,0.99
2023-01-19T23:31:45.695Z,1.19
2023-01-19T23:34:13.146Z,1.20
2023-01-19T23:36:41.003Z,1.20
2023-01-19T23:39:18.290Z,1.24
2023-01-19T23:41:45.015Z,1.25
2023-01-19T23:44:11.657Z,1.23
2023-01-19T23:46:38.658Z,1.21
2023-01-19T23:49:05.431Z,1.01
2023-01-19T23:51:33.493Z,1.21
2023-01-19T23:54:01.039Z,1.17
2023-01-19T23:56:33.447Z,1.27
2023-01-19T23:59:06.386Z,1.23
